createdAt,value
2023-05-06T00:00:20.962Z,1.23
2023-05-06T00:02:48.426Z,1.37
2023-05-06T00:05:18.619Z,1.28
2023-05-06T00:07:46.679Z,1.30
2023-05-06T00:10:13.853Z,1.23
2023-05-06T00:12:41.028Z,1.14
2023-05-06T00:15:08.672Z,1.14
2023-05-06T00:17:35.942Z,1.10
2023-05-06T00:20:03.874Z,1.11
2023-05-06T00:22:31.940Z,1.09
2023-05-06T00:24:59.026Z,0.98
2023-05-06T00:27:26.120Z,0.90
2023-05-06T00:29:53.128Z,0.98
2023-05-06T00:32:20.158Z,0.95
2023-05-06T00:34:47.367Z,0.81
2023-05-06T00:37:14.504Z,0.71
2023-05-06T00:39:41.606Z,0.81
2023-05-06T00:42:08.644Z,0.72
2023-05-06T00:44:36.691Z,0.70
2023-05-06T00:47:04.840Z,0.55
2023-05-06T00:49:32.257Z,0.63
2023-05-06T00:52:00.053Z,0.60
2023-05-06T00:54:27.791Z,0.57
2023-05-06T00:56:55.044Z,0.40
2023-05-06T00:59:23.265Z,0.34
2023-05-06T01:01:52.358Z,0.46
2023-05-06T01:04:20.259Z,0.45
2023-05-06T01:07:06.406Z,0.38
2023-05-06T01:09:58.689Z,0.32
2023-05-06T01:12:42.966Z,0.30
2023-05-06T01:15:24.462Z,0.29
2023-05-06T01:17:54.657Z,0.21
2023-05-06T01:20:21.904Z,0.21
2023-05-06T01:22:50.101Z,0.10
2023-05-06T01:25:22.608Z,0.12
2023-05-06T01:27:50.692Z,0.11
2023-05-06T01:30:19.884Z,0.09
2023-05-06T01:32:53.038Z,0.06
2023-05-06T01:35:24.404Z,0.04
2023-05-06T01:38:06.306Z,-0.01
2023-05-06T01:40:34.135Z,-0.14
2023-05-06T01:43:05.047Z,-0.01
2023-05-06T01:45:35.803Z,-0.03
2023-05-06T01:48:05.121Z,-0.08
2023-05-06T01:50:33.307Z,-0.35
2023-05-06T01:53:03.385Z,-0.21
2023-05-06T01:55:30.700Z,-0.16
2023-05-06T01:57:57.836Z,-0.16
2023-05-06T02:00:26.713Z,-0.15
2023-05-06T02:02:54.125Z,-0.23
2023-05-06T02:05:21.547Z,-0.22
2023-05-06T02:07:52.915Z,-0.22
2023-05-06T02:10:20.561Z,-0.23
2023-05-06T02:12:54.796Z,-0.24
2023-05-06T02:15:24.544Z,-0.27
2023-05-06T02:17:52.792Z,-0.28
2023-05-06T02:20:20.121Z,-0.33
2023-05-06T02:22:47.669Z,-0.29
2023-05-06T02:25:14.904Z,-0.28
2023-05-06T02:27:42.028Z,-0.28
2023-05-06T02:30:09.343Z,-0.36
2023-05-06T02:32:36.713Z,-0.28
2023-05-06T02:35:04.324Z,-0.28
2023-05-06T02:37:31.446Z,-0.28
2023-05-06T02:40:00.578Z,-0.29
2023-05-06T02:42:27.760Z,-0.32
2023-05-06T02:44:54.869Z,-0.34
2023-05-06T02:47:22.032Z,-0.35
2023-05-06T02:49:49.098Z,-0.25
2023-05-06T02:52:16.278Z,-0.23
2023-05-06T02:54:43.255Z,-0.26
2023-05-06T02:57:10.288Z,-0.31
2023-05-06T02:59:37.388Z,-0.21
2023-05-06T03:02:04.417Z,-0.16
2023-05-06T03:04:31.985Z,-0.16
2023-05-06T03:06:59.202Z,-0.14
2023-05-06T03:09:26.482Z,-0.07
2023-05-06T03:11:54.395Z,-0.05
2023-05-06T03:14:21.700Z,-0.05
2023-05-06T03:16:50.248Z,-0.01
2023-05-06T03:19:17.484Z,0.16
2023-05-06T03:21:45.410Z,0.24
2023-05-06T03:24:12.515Z,0.34
2023-05-06T03:26:39.665Z,0.55
2023-05-06T03:29:08.293Z,0.62
2023-05-06T03:31:36.534Z,0.57
2023-05-06T03:34:03.640Z,0.64
2023-05-06T03:36:31.927Z,0.65
2023-05-06T03:38:59.686Z,0.61
2023-05-06T03:41:27.124Z,0.67
2023-05-06T03:43:55.904Z,0.55
2023-05-06T03:46:26.806Z,0.67
2023-05-06T03:48:54.467Z,0.70
2023-05-06T03:51:21.864Z,0.80
2023-05-06T03:53:48.861Z,0.87
2023-05-06T03:56:18.364Z,0.95
2023-05-06T03:58:49.171Z,1.01
2023-05-06T04:01:18.354Z,1.02
2023-05-06T04:03:46.023Z,1.01
2023-05-06T04:06:13.674Z,0.99
2023-05-06T04:08:40.784Z,1.00
2023-05-06T04:11:08.684Z,1.02
2023-05-06T04:13:37.241Z,1.01
2023-05-06T04:16:10.060Z,1.19
2023-05-06T04:18:41.391Z,1.52
2023-05-06T04:21:13.989Z,1.77
2023-05-06T04:23:44.421Z,1.88
2023-05-06T04:26:15.629Z,2.39
2023-05-06T04:28:44.629Z,2.60
2023-05-06T04:31:14.713Z,2.81
2023-05-06T04:33:47.665Z,3.26
2023-05-06T04:36:17.380Z,3.52
2023-05-06T04:39:08.893Z,3.27
2023-05-06T04:41:36.972Z,3.52
2023-05-06T04:44:05.353Z,3.70
2023-05-06T04:46:34.120Z,3.67
2023-05-06T04:49:03.343Z,3.92
2023-05-06T04:51:31.692Z,3.94
2023-05-06T04:53:59.654Z,4.14
2023-05-06T04:56:26.928Z,4.56
2023-05-06T04:58:54.419Z,4.92
2023-05-06T05:01:22.484Z,5.12
2023-05-06T05:03:50.569Z,5.35
2023-05-06T05:06:20.655Z,5.31
2023-05-06T05:08:48.074Z,5.14
2023-05-06T05:11:15.355Z,5.21
2023-05-06T05:13:43.127Z,5.41
2023-05-06T05:16:10.210Z,4.82
2023-05-06T05:18:40.270Z,4.37
2023-05-06T05:21:14.715Z,4.39
2023-05-06T05:23:42.066Z,4.10
2023-05-06T05:26:10.134Z,4.18
2023-05-06T05:28:37.312Z,4.16
2023-05-06T05:31:06.087Z,4.39
2023-05-06T05:33:36.232Z,4.68
2023-05-06T05:36:08.110Z,5.52
2023-05-06T05:38:36.492Z,5.58
2023-05-06T05:41:04.612Z,5.66
2023-05-06T05:43:31.897Z,5.95
2023-05-06T05:46:01.262Z,6.23
2023-05-06T05:48:32.839Z,6.71
2023-05-06T05:51:02.454Z,7.14
2023-05-06T05:53:29.978Z,7.80
2023-05-06T05:55:57.363Z,8.10
2023-05-06T05:58:24.985Z,7.44
2023-05-06T06:00:54.269Z,6.72
2023-05-06T06:03:21.557Z,6.25
2023-05-06T06:05:49.553Z,5.81
2023-05-06T06:08:18.877Z,6.33
2023-05-06T06:10:47.522Z,6.71
2023-05-06T06:13:19.246Z,6.68
2023-05-06T06:15:46.860Z,6.62
2023-05-06T06:18:14.279Z,6.61
2023-05-06T06:20:41.329Z,6.59
2023-05-06T06:23:09.779Z,7.23
2023-05-06T06:25:37.140Z,7.60
2023-05-06T06:28:04.446Z,8.27
2023-05-06T06:30:31.834Z,8.92
2023-05-06T06:33:01.418Z,9.01
2023-05-06T06:35:29.649Z,8.31
2023-05-06T06:37:56.783Z,8.04
2023-05-06T06:40:24.000Z,8.47
2023-05-06T06:42:51.385Z,8.93
2023-05-06T06:45:36.960Z,9.02
2023-05-06T06:48:04.324Z,9.38
2023-05-06T06:50:31.511Z,9.39
2023-05-06T06:52:58.541Z,8.97
2023-05-06T06:55:25.989Z,8.38
2023-05-06T06:57:53.098Z,8.07
2023-05-06T07:00:20.152Z,8.35
2023-05-06T07:02:48.731Z,9.02
2023-05-06T07:05:16.045Z,9.56
2023-05-06T07:07:43.136Z,9.36
2023-05-06T07:10:10.869Z,9.12
2023-05-06T07:12:37.990Z,9.04
2023-05-06T07:15:07.169Z,8.78
2023-05-06T07:17:34.405Z,8.52
2023-05-06T07:20:01.532Z,7.54
2023-05-06T07:22:31.222Z,6.78
2023-05-06T07:24:58.360Z,6.55
2023-05-06T07:27:27.424Z,6.69
2023-05-06T07:29:54.519Z,6.78
2023-05-06T07:32:21.726Z,6.68
2023-05-06T07:34:49.066Z,6.56
2023-05-06T07:37:16.087Z,6.28
2023-05-06T07:39:43.366Z,6.43
2023-05-06T07:42:13.167Z,7.23
2023-05-06T07:44:40.578Z,7.57
2023-05-06T07:47:08.100Z,8.37
2023-05-06T07:49:35.635Z,8.68
2023-05-06T07:52:03.781Z,8.18
2023-05-06T07:54:31.861Z,7.76
2023-05-06T07:56:59.147Z,7.63
2023-05-06T07:59:26.273Z,7.82
2023-05-06T08:01:53.443Z,7.95
2023-05-06T08:04:20.697Z,8.03
2023-05-06T08:06:47.850Z,7.90
2023-05-06T08:09:22.299Z,7.69
2023-05-06T08:11:50.969Z,7.84
2023-05-06T08:14:18.142Z,8.12
2023-05-06T08:16:45.517Z,7.86
2023-05-06T08:19:14.462Z,7.87
2023-05-06T08:21:42.284Z,7.77
2023-05-06T08:24:11.086Z,7.83
2023-05-06T08:26:38.228Z,9.13
2023-05-06T08:29:05.282Z,10.06
2023-05-06T08:31:32.597Z,10.47
2023-05-06T08:33:59.767Z,10.24
2023-05-06T08:36:27.632Z,9.58
2023-05-06T08:38:54.691Z,9.20
2023-05-06T08:41:22.407Z,8.49
2023-05-06T08:43:50.875Z,8.11
2023-05-06T08:46:18.294Z,7.74
2023-05-06T08:48:45.915Z,7.47
2023-05-06T08:51:17.966Z,7.32
2023-05-06T08:53:48.934Z,7.38
2023-05-06T08:56:16.907Z,7.35
2023-05-06T08:58:46.810Z,7.99
2023-05-06T09:01:15.289Z,8.66
2023-05-06T09:03:42.453Z,9.22
2023-05-06T09:06:10.100Z,9.27
2023-05-06T09:08:37.224Z,8.87
2023-05-06T09:11:19.598Z,8.48
2023-05-06T09:13:46.996Z,8.31
2023-05-06T09:16:28.555Z,8.52
2023-05-06T09:18:55.931Z,8.75
2023-05-06T09:21:32.334Z,9.08
2023-05-06T09:24:00.009Z,9.06
2023-05-06T09:26:29.731Z,9.74
2023-05-06T09:28:58.487Z,10.16
2023-05-06T09:31:26.582Z,10.12
2023-05-06T09:33:55.238Z,9.84
2023-05-06T09:36:23.793Z,9.63
2023-05-06T09:38:51.231Z,9.89
2023-05-06T09:41:21.153Z,10.08
2023-05-06T09:43:49.508Z,9.84
2023-05-06T09:46:17.430Z,9.56
2023-05-06T09:48:46.151Z,8.82
2023-05-06T09:51:13.673Z,8.64
2023-05-06T09:53:41.747Z,9.17
2023-05-06T09:56:09.103Z,10.00
2023-05-06T09:58:37.292Z,10.78
2023-05-06T10:01:06.064Z,11.26
2023-05-06T10:03:34.766Z,11.31
2023-05-06T10:06:05.079Z,11.79
2023-05-06T10:08:36.980Z,11.64
2023-05-06T10:11:06.626Z,12.16
2023-05-06T10:13:35.835Z,12.53
2023-05-06T10:16:03.284Z,13.06
2023-05-06T10:18:31.165Z,12.71
2023-05-06T10:21:06.669Z,12.16
2023-05-06T10:23:49.234Z,10.88
2023-05-06T10:26:18.319Z,10.30
2023-05-06T10:28:49.803Z,9.68
2023-05-06T10:31:17.113Z,9.31
2023-05-06T10:33:49.329Z,8.79
2023-05-06T10:36:28.796Z,8.55
2023-05-06T10:38:58.751Z,8.54
2023-05-06T10:41:28.308Z,9.80
2023-05-06T10:44:00.260Z,11.09
2023-05-06T10:46:31.052Z,10.83
2023-05-06T10:49:06.849Z,10.62
2023-05-06T10:51:35.515Z,10.24
2023-05-06T10:54:07.502Z,9.84
2023-05-06T10:56:36.532Z,9.42
2023-05-06T10:59:12.654Z,9.17
2023-05-06T11:01:42.164Z,8.85
2023-05-06T11:04:14.589Z,9.07
2023-05-06T11:06:46.800Z,10.51
2023-05-06T11:09:17.990Z,11.17
2023-05-06T11:11:47.923Z,11.02
2023-05-06T11:14:24.614Z,11.07
2023-05-06T11:16:53.147Z,11.01
2023-05-06T11:19:23.734Z,10.00
2023-05-06T11:21:52.773Z,9.35
2023-05-06T11:24:31.053Z,8.91
2023-05-06T11:27:00.078Z,8.84
2023-05-06T11:29:27.262Z,8.81
2023-05-06T11:31:54.432Z,9.47
2023-05-06T11:34:29.179Z,9.99
2023-05-06T11:37:07.188Z,10.14
2023-05-06T11:39:40.507Z,10.12
2023-05-06T11:42:09.209Z,10.02
2023-05-06T11:44:39.180Z,9.58
2023-05-06T11:47:08.381Z,8.82
2023-05-06T11:49:43.124Z,8.61
2023-05-06T11:52:11.632Z,8.56
2023-05-06T11:54:40.848Z,8.40
2023-05-06T11:57:09.664Z,8.45
2023-05-06T11:59:41.301Z,8.27
2023-05-06T12:02:10.862Z,8.14
2023-05-06T12:04:38.996Z,8.16
2023-05-06T12:07:07.772Z,8.23
2023-05-06T12:09:37.160Z,8.17
2023-05-06T12:12:05.884Z,8.26
2023-05-06T12:14:33.534Z,8.24
2023-05-06T12:17:00.599Z,8.33
2023-05-06T12:19:29.275Z,8.78
2023-05-06T12:21:57.558Z,9.40
2023-05-06T12:24:31.324Z,10.21
2023-05-06T12:26:59.084Z,10.57
2023-05-06T12:29:26.172Z,10.75
2023-05-06T12:32:10.727Z,10.39
2023-05-06T12:34:41.689Z,9.87
2023-05-06T12:37:09.194Z,9.27
2023-05-06T12:39:38.122Z,8.91
2023-05-06T12:42:06.780Z,8.48
2023-05-06T12:44:37.802Z,8.16
2023-05-06T12:47:08.746Z,7.69
2023-05-06T12:49:55.268Z,7.38
2023-05-06T12:52:23.908Z,7.11
2023-05-06T12:54:52.929Z,7.07
2023-05-06T12:57:21.244Z,7.05
2023-05-06T12:59:49.741Z,7.17
2023-05-06T13:02:17.056Z,7.10
2023-05-06T13:04:45.396Z,7.21
2023-05-06T13:07:12.814Z,7.38
2023-05-06T13:09:40.091Z,7.81
2023-05-06T13:12:07.519Z,8.21
2023-05-06T13:14:35.882Z,8.47
2023-05-06T13:17:07.025Z,8.56
2023-05-06T13:19:34.412Z,8.80
2023-05-06T13:22:02.122Z,8.99
2023-05-06T13:24:29.835Z,8.73
2023-05-06T13:26:57.585Z,8.93
2023-05-06T13:29:25.175Z,10.24
2023-05-06T13:31:52.824Z,11.24
2023-05-06T13:34:19.961Z,10.63
2023-05-06T13:36:49.365Z,9.62
2023-05-06T13:39:16.813Z,8.90
2023-05-06T13:41:47.061Z,8.45
2023-05-06T13:44:14.410Z,7.92
2023-05-06T13:46:44.010Z,7.59
2023-05-06T13:49:14.039Z,7.37
2023-05-06T13:51:41.181Z,7.26
2023-05-06T13:54:08.284Z,7.12
2023-05-06T13:56:35.596Z,6.98
2023-05-06T13:59:02.801Z,6.91
2023-05-06T14:01:30.134Z,6.93
2023-05-06T14:03:57.418Z,6.97
2023-05-06T14:06:24.738Z,6.97
2023-05-06T14:08:51.982Z,7.16
2023-05-06T14:11:19.097Z,7.30
2023-05-06T14:13:46.179Z,7.32
2023-05-06T14:16:13.207Z,7.46
2023-05-06T14:18:40.574Z,7.74
2023-05-06T14:21:07.656Z,7.92
2023-05-06T14:23:35.045Z,7.58
2023-05-06T14:26:02.196Z,7.57
2023-05-06T14:28:29.193Z,7.60
2023-05-06T14:30:58.192Z,7.50
2023-05-06T14:33:25.572Z,7.39
2023-05-06T14:35:53.077Z,7.17
2023-05-06T14:38:20.228Z,6.97
2023-05-06T14:40:47.374Z,6.91
2023-05-06T14:43:14.392Z,6.68
2023-05-06T14:45:41.467Z,6.57
2023-05-06T14:48:08.855Z,6.58
2023-05-06T14:50:36.023Z,6.55
2023-05-06T14:53:04.052Z,6.59
2023-05-06T14:55:31.457Z,6.52
2023-05-06T14:57:58.596Z,6.53
2023-05-06T15:00:25.784Z,6.43
2023-05-06T15:02:53.013Z,6.17
2023-05-06T15:05:20.347Z,5.95
2023-05-06T15:07:47.645Z,5.74
2023-05-06T15:10:15.320Z,5.67
2023-05-06T15:12:42.714Z,5.61
2023-05-06T15:15:10.291Z,5.62
2023-05-06T15:17:37.826Z,5.56
2023-05-06T15:20:06.947Z,5.48
2023-05-06T15:22:34.210Z,5.49
2023-05-06T15:25:03.073Z,5.52
2023-05-06T15:27:32.375Z,5.52
2023-05-06T15:30:04.273Z,5.40
2023-05-06T15:32:34.128Z,5.26
2023-05-06T15:35:01.407Z,5.34
2023-05-06T15:37:33.523Z,5.38
2023-05-06T15:40:01.227Z,5.43
2023-05-06T15:42:29.949Z,5.39
2023-05-06T15:44:57.984Z,5.36
2023-05-06T15:47:25.135Z,5.39
2023-05-06T15:49:55.053Z,5.23
2023-05-06T15:52:23.592Z,5.45
2023-05-06T15:54:58.939Z,5.43
2023-05-06T15:57:30.057Z,5.32
2023-05-06T15:59:57.285Z,5.27
2023-05-06T16:02:27.114Z,5.19
2023-05-06T16:04:54.975Z,5.22
2023-05-06T16:07:22.199Z,5.15
2023-05-06T16:09:50.288Z,5.21
2023-05-06T16:12:18.901Z,5.27
2023-05-06T16:14:46.069Z,5.13
2023-05-06T16:17:13.048Z,5.26
2023-05-06T16:19:42.875Z,5.25
2023-05-06T16:22:10.101Z,5.17
2023-05-06T16:24:37.292Z,5.13
2023-05-06T16:27:05.820Z,5.04
2023-05-06T16:29:32.948Z,4.97
2023-05-06T16:32:00.732Z,4.95
2023-05-06T16:34:28.079Z,4.76
2023-05-06T16:36:55.229Z,4.77
2023-05-06T16:39:22.240Z,4.70
2023-05-06T16:41:49.254Z,4.62
2023-05-06T16:44:16.454Z,4.56
2023-05-06T16:46:43.929Z,4.26
2023-05-06T16:49:11.162Z,4.31
2023-05-06T16:51:38.253Z,4.30
2023-05-06T16:54:05.705Z,4.23
2023-05-06T16:56:48.029Z,4.13
2023-05-06T16:59:21.395Z,4.05
2023-05-06T17:01:49.726Z,4.04
2023-05-06T17:04:17.014Z,3.92
2023-05-06T17:06:44.674Z,3.93
2023-05-06T17:09:12.334Z,3.82
2023-05-06T17:11:39.424Z,3.88
2023-05-06T17:14:06.584Z,3.83
2023-05-06T17:16:33.753Z,3.79
2023-05-06T17:19:01.331Z,3.67
2023-05-06T17:21:28.528Z,3.71
2023-05-06T17:23:56.226Z,3.57
2023-05-06T17:26:23.346Z,3.65
2023-05-06T17:28:51.136Z,3.63
2023-05-06T17:31:18.989Z,3.53
2023-05-06T17:33:46.167Z,3.49
2023-05-06T17:36:14.074Z,3.49
2023-05-06T17:38:41.243Z,3.49
2023-05-06T17:41:08.872Z,3.43
2023-05-06T17:43:36.099Z,3.49
2023-05-06T17:46:03.183Z,3.25
2023-05-06T17:48:31.231Z,3.49
2023-05-06T17:51:02.539Z,3.48
2023-05-06T17:53:30.042Z,3.42
2023-05-06T17:55:57.137Z,3.44
2023-05-06T17:58:24.167Z,3.44
2023-05-06T18:00:51.343Z,3.43
2023-05-06T18:03:18.642Z,3.41
2023-05-06T18:05:46.227Z,3.36
2023-05-06T18:08:13.457Z,3.33
2023-05-06T18:10:41.578Z,3.28
2023-05-06T18:13:09.254Z,3.29
2023-05-06T18:15:36.306Z,3.31
2023-05-06T18:18:03.572Z,3.21
2023-05-06T18:20:30.899Z,3.26
2023-05-06T18:22:58.816Z,3.15
2023-05-06T18:25:26.139Z,3.22
2023-05-06T18:27:53.160Z,3.20
2023-05-06T18:30:20.224Z,3.15
2023-05-06T18:32:49.357Z,3.08
2023-05-06T18:35:18.338Z,2.99
2023-05-06T18:37:45.413Z,2.94
2023-05-06T18:40:13.935Z,2.81
2023-05-06T18:42:41.525Z,2.85
2023-05-06T18:45:09.337Z,2.78
2023-05-06T18:47:37.766Z,2.86
2023-05-06T18:50:05.244Z,2.76
2023-05-06T18:52:32.496Z,2.62
2023-05-06T18:54:59.829Z,2.60
2023-05-06T18:57:27.059Z,2.64
2023-05-06T18:59:54.115Z,2.66
2023-05-06T19:02:21.439Z,2.62
2023-05-06T19:04:48.746Z,2.58
2023-05-06T19:07:16.293Z,2.56
2023-05-06T19:09:44.003Z,2.55
2023-05-06T19:12:11.655Z,2.47
2023-05-06T19:14:38.830Z,2.57
2023-05-06T19:17:06.102Z,2.54
2023-05-06T19:19:33.170Z,2.48
2023-05-06T19:22:01.986Z,2.48
2023-05-06T19:24:30.063Z,2.48
2023-05-06T19:26:57.254Z,2.45
2023-05-06T19:29:24.397Z,2.32
2023-05-06T19:31:51.539Z,2.38
2023-05-06T19:34:18.688Z,2.37
2023-05-06T19:36:45.800Z,2.14
2023-05-06T19:39:12.938Z,2.27
2023-05-06T19:41:40.233Z,2.19
2023-05-06T19:44:07.291Z,2.26
2023-05-06T19:46:34.610Z,2.24
2023-05-06T19:49:01.651Z,2.04
2023-05-06T19:51:29.054Z,2.09
2023-05-06T19:53:56.076Z,2.09
2023-05-06T19:56:23.133Z,2.08
2023-05-06T19:58:51.212Z,2.04
2023-05-06T20:01:22.574Z,2.00
2023-05-06T20:03:50.009Z,1.86
2023-05-06T20:06:17.377Z,1.99
2023-05-06T20:08:44.525Z,1.95
2023-05-06T20:11:11.562Z,1.85
2023-05-06T20:13:38.765Z,1.88
2023-05-06T20:16:06.223Z,1.82
2023-05-06T20:18:33.719Z,1.80
2023-05-06T20:21:02.355Z,1.79
2023-05-06T20:23:31.075Z,1.80
2023-05-06T20:25:58.275Z,1.79
2023-05-06T20:28:26.585Z,1.75
2023-05-06T20:30:55.679Z,1.74
2023-05-06T20:33:22.921Z,1.71
2023-05-06T20:35:51.078Z,1.58
2023-05-06T20:38:19.519Z,1.67
2023-05-06T20:40:47.773Z,1.61
2023-05-06T20:43:14.810Z,1.62
2023-05-06T20:45:42.149Z,1.57
2023-05-06T20:48:09.244Z,1.58
2023-05-06T20:50:36.372Z,1.52
2023-05-06T20:53:03.386Z,1.46
2023-05-06T20:55:30.633Z,1.47
2023-05-06T20:57:57.729Z,1.50
2023-05-06T21:00:24.910Z,1.43
2023-05-06T21:02:52.230Z,1.40
2023-05-06T21:05:19.678Z,1.24
2023-05-06T21:07:46.752Z,1.24
2023-05-06T21:10:14.658Z,1.28
2023-05-06T21:12:47.805Z,1.21
2023-05-06T21:15:15.498Z,1.26
2023-05-06T21:17:43.310Z,1.24
2023-05-06T21:20:10.928Z,1.21
2023-05-06T21:22:38.053Z,1.06
2023-05-06T21:25:05.809Z,1.16
2023-05-06T21:27:33.053Z,1.13
2023-05-06T21:30:00.102Z,1.12
2023-05-06T21:32:33.017Z,1.14
2023-05-06T21:35:04.188Z,1.05
2023-05-06T21:37:35.793Z,1.09
2023-05-06T21:40:04.654Z,0.98
2023-05-06T21:42:34.336Z,1.03
2023-05-06T21:45:01.533Z,1.01
2023-05-06T21:47:31.858Z,1.02
2023-05-06T21:49:59.156Z,1.02
2023-05-06T21:52:26.397Z,0.97
2023-05-06T21:54:53.694Z,0.99
2023-05-06T21:57:20.838Z,0.81
2023-05-06T21:59:48.094Z,0.89
2023-05-06T22:02:15.202Z,0.90
2023-05-06T22:04:42.565Z,0.81
2023-05-06T22:07:09.540Z,0.84
2023-05-06T22:09:36.614Z,0.78
2023-05-06T22:12:06.814Z,0.82
2023-05-06T22:14:41.131Z,0.80
2023-05-06T22:17:10.503Z,0.79
2023-05-06T22:19:38.625Z,0.78
2023-05-06T22:22:06.657Z,0.68
2023-05-06T22:24:34.411Z,0.72
2023-05-06T22:27:01.848Z,0.74
2023-05-06T22:29:29.077Z,0.74
2023-05-06T22:31:56.237Z,0.69
2023-05-06T22:34:23.268Z,0.70
2023-05-06T22:36:50.431Z,0.78
2023-05-06T22:39:17.640Z,0.77
2023-05-06T22:41:44.916Z,0.74
2023-05-06T22:44:13.830Z,0.67
2023-05-06T22:46:41.059Z,0.67
2023-05-06T22:49:08.429Z,0.65
2023-05-06T22:51:35.698Z,0.58
2023-05-06T22:54:02.744Z,0.58
2023-05-06T22:56:29.798Z,0.58
2023-05-06T22:58:57.065Z,0.58
2023-05-06T23:01:26.280Z,0.57
2023-05-06T23:03:53.672Z,0.41
2023-05-06T23:06:21.099Z,0.46
2023-05-06T23:08:48.128Z,0.49
2023-05-06T23:11:15.168Z,0.41
2023-05-06T23:13:42.163Z,0.51
2023-05-06T23:16:10.414Z,0.51
2023-05-06T23:18:37.805Z,0.29
2023-05-06T23:21:05.127Z,0.52
2023-05-06T23:23:32.695Z,0.55
2023-05-06T23:25:59.819Z,0.38
2023-05-06T23:28:27.008Z,0.33
2023-05-06T23:30:54.515Z,0.34
2023-05-06T23:33:21.604Z,0.29
2023-05-06T23:35:48.624Z,0.24
2023-05-06T23:38:15.974Z,0.20
2023-05-06T23:40:43.006Z,0.12
2023-05-06T23:43:11.389Z,0.11
2023-05-06T23:45:38.418Z,0.02
2023-05-06T23:48:06.037Z,0.10
2023-05-06T23:50:33.253Z,0.08
2023-05-06T23:53:00.724Z,0.04
2023-05-06T23:55:29.077Z,-0.02
2023-05-06T23:57:56.494Z,0.05
